arxmliv
arxmliv build tool
 
KWARC group
LaTeXML
About
   
 

Detailed info

Back to Homepage

List of missing_macros

No. Date Filename num_warningnum_errornum_xmargok_xmargnum_xmathok_xmathMissing macros
121801 2013-03-08 01:09:47 /0512/cs.0512095 340000[\category, \numberofauthors, \terms, \keywords]; 1 missing file[sigcomm-alternate.cls].
121802 2013-03-08 01:09:35 /0512/cs.0512063 560000[{keywords}, \QED, {biography}, \IEEEmembership, \appendices, {proof}]; 1 missing file[IEEEtran.cls].
121803 2013-03-08 01:09:30 /0512/cs.0512051 810000[\epsf].
121804 2013-03-08 01:09:26 /0512/cs.0512096 550000[{boxedminipage}, \makeatactive]; 3 missing files[fancyvrb.sty, boxedminipage.sty, code.sty].
121805 2013-03-08 01:09:16 /0512/cs.0512061 20770000[{psmatrix}, Align, {relate}]; 2 missing files[relate.sty, pst-tree.sty].
121806 2013-03-08 01:09:04 /0512/cs.0512048 12450000[\authorblockN, {keywords}, \PARstart, \appendices]; 2 missing files[stfloats.sty, IEEEtran.cls].
121807 2013-03-08 01:09:04 /0512/cs.0512065 40340000[\N, \affaddr, \xymatrix, \numberofauthors, \titlenote, \rrbracket, \terms, \alignauthor, \normalem, \subtitle, \email, \ar, \llbracket]; 1 missing file[xy.sty].
121808 2013-03-08 01:08:58 /0512/cs.0512067 8640000[Align, \xymatrix, \ar]; 1 missing file[xy.sty].
121809 2013-03-08 01:08:44 /0512/cs.0512062 230000[\reportnumber, \makecover]; 1 missing file[techrep.sty].
121810 2013-03-08 01:08:32 /0512/cs.0512071 140000[\email, \inst, \institute, \keywords]; 1 missing file[ijuc.cls].
121811 2013-03-08 01:08:26 /0512/cs.0512038 8760000[{keywords}, \PARstart, \IEEEmembership, {proof}, \appendices, \bstctlcite]; 1 missing file[IEEEtran.cls].
121812 2013-03-08 01:08:23 /0512/cs.0512050 660000[\toctitle, \keyword, \titlerunning, \institute, \authorrunning]; 1 missing file[asmda2005References.sty].
121813 2013-03-08 01:08:09 /0512/cs.0512017 4510000[\adots].
121814 2013-03-08 01:08:09 /0512/cs.0512028 7720000[\appendices, {proof}]; 1 missing file[IEEEtran.cls].
121815 2013-03-08 01:08:06 /0512/cs.0512015 32240000[\Sup, {lemma}, {theorem}, \diam, \appendices, \useRomanappendicesfalse, \Min, {comment}, \Inf, \Z, {remark}, \IEEEmembership, \E, \Csiszar, \ave, {proposition}, \map, \PARstart, \deq, \R, \argmin, {definition}, \bigtimes, {proof}]; 1 missing file[IEEEtra
121816 2013-03-08 01:07:57 /0512/cs.0512023 5220000[\appendices, {proof}]; 1 missing file[IEEEtran.cls].
121817 2013-03-08 01:07:24 /0512/cs.0512025 810000[\nicefrac].
121818 2013-03-08 01:07:04 /0512/cs.0512030 1730000[\authorblockN, \authorblockA, {proof}]; 1 missing file[IEEEtran.cls].
121819 2013-03-08 01:06:50 /0512/cs.0512024 130000[\nicefrac].
121820 2013-03-08 01:06:23 /0512/cs.0512010 4130000[Align, \xymatrix, \ar].
121821 2013-03-08 01:06:16 /0512/cs.0512019 420000[{keywords}]; 1 missing file[kaeog.sty].
121822 2013-03-08 01:06:04 /0512/cs.0512009 880000[\address, \email, \rsuper, \subjclass, \lsuper, \lmcsheading, {proof}, \keywords]; 1 missing file[LMCS.cls].
121823 2013-03-08 01:05:42 /0512/cond-mat.0512709 5610000[\dec].
121824 2013-03-08 01:05:21 /0512/cond-mat.0512689 1510000[\psfrag].
121825 2013-03-08 01:05:04 /0512/cond-mat.0512692 040000[\theappendix, \extrasenglish, \dateenglish, \captionsenglish].
121826 2013-03-08 01:04:46 /0512/cond-mat.0512701 090000[\sodtitle, \dates, \lat, \rauthor, \sodauthor, \address, \PACS, \D, \rtitle].
121827 2013-03-08 01:04:45 /0512/cond-mat.0512684 810000[\psfrag].
121828 2013-03-08 01:04:41 /0512/cond-mat.0512682 010000[\dint].
121829 2013-03-08 01:04:39 /0512/cond-mat.0512688 1180000[\Issue, \inst, \Month, \Reviseddate, \Receiveddate, \DOIsuffix, \Volume, \pagespan, {SCfigure}, \subjclass, \Copyrightissue, \Dateposted, \Accepteddate, \Year, {acknowledgement}].
121830 2013-03-08 01:04:16 /0512/cond-mat.0512674 540000[\kword, \abst, \inst, \recdate].
121831 2013-03-08 01:04:10 /0512/cond-mat.0512675 030000[\extrasenglish, \dateenglish, \captionsenglish].
121832 2013-03-08 01:04:08 /0512/cond-mat.0512678 760000[\catchline, {history}, \psfig, \revised, \keywords, \received].
121833 2013-03-08 01:03:58 /0512/cond-mat.0512647 450000[\kword, \abst, \inst, \recdate, \mib].
121834 2013-03-08 01:03:51 /0512/cond-mat.0512671 370000[\subjclass, {vchfigure}, {acknowledgement}]; 1 missing file[sidecap.sty].
121835 2013-03-08 01:03:07 /0512/cond-mat.0512642 3640000[\kword, \abst, \inst, \recdate].
121836 2013-03-08 01:03:05 /0512/cond-mat.0512622 2060000[\mathds, \text].
121837 2013-03-08 01:02:52 /0512/cond-mat.0512614 720000[\theappendix].
121838 2013-03-08 01:02:18 /0512/cond-mat.0512603 230000[\psfrag].
121839 2013-03-08 01:00:42 /0512/cond-mat.0512545 1570000[\refaddr, \pacs, \addresses, \addr].
121840 2013-03-08 01:00:42 /0512/cond-mat.0512557 210000[\psfrag].
121841 2013-03-08 01:00:05 /0512/cond-mat.0512537 3310000[\toctitle].
121842 2013-03-08 00:59:27 /0512/cond-mat.0512519 1110000[\I].
121843 2013-03-08 00:59:14 /0512/cond-mat.0512540 030000[\extrasenglish, \dateenglish, \captionsenglish].
121844 2013-03-08 00:58:34 /0512/cond-mat.0512514 210000[\theappendix].
121845 2013-03-08 00:58:22 /0512/cond-mat.0512517 330000[\@affiliation, \onefigure].
121846 2013-03-08 00:57:43 /0512/cond-mat.0512494 210000[\psfrag].
121847 2013-03-08 00:57:11 /0512/cond-mat.0512483 720000[\@affiliation].
121848 2013-03-08 00:56:40 /0512/cond-mat.0512452 1210000[\psfrag].
121849 2013-03-08 00:56:37 /0512/cond-mat.0512467 360000[\address, \thanksref, \PACS, \sep, {frontmatter}, {keyword}]; 1 missing file[PHYEAUTH.cls].
121850 2013-03-08 00:56:37 /0512/cond-mat.0512468 030000[\extrasenglish, \dateenglish, \captionsenglish].
121851 2013-03-08 00:56:26 /0512/cond-mat.0512456 030000[\extrasenglish, \dateenglish, \captionsenglish].
121852 2013-03-08 00:56:14 /0512/cond-mat.0512462 820000[\psfrag, \E].
121853 2013-03-08 00:55:52 /0512/cond-mat.0512447 010000[\toctitle].
121854 2013-03-08 00:55:29 /0512/cond-mat.0512440 1030000[\kword, \abst, \inst].
121855 2013-03-08 00:55:07 /0512/cond-mat.0512408 130000[\extrasenglish, \dateenglish, \captionsenglish].
121856 2013-03-08 00:55:05 /0512/cond-mat.0512407 3050000[\extrasenglish, \dateenglish, \captionsenglish].
121857 2013-03-08 00:54:57 /0512/cond-mat.0512405 110000[\psfrag].
121858 2013-03-08 00:54:54 /0512/cond-mat.0512406 510000[\affiliation].
121859 2013-03-08 00:54:30 /0512/cond-mat.0512394 180000[{addendum}, {affiliations}]; 1 missing file[nature_withfigs.cls].
121860 2013-03-08 00:54:26 /0512/cond-mat.0512395 140000[{theacknowledgments}, \layoutstyle, \tablehead, \classification].
121861 2013-03-08 00:53:51 /0512/cond-mat.0512380 130000[\kword, \abst, \inst].
121862 2013-03-08 00:53:43 /0512/cond-mat.0512381 010000[\citen].
121863 2013-03-08 00:53:28 /0512/cond-mat.0512347 030000[\extrasenglish, \dateenglish, \captionsenglish].
121864 2013-03-08 00:53:25 /0512/cond-mat.0512335 5330000[\psfrag].
121865 2013-03-08 00:53:20 /0512/cond-mat.0512367 030000[\copyrightyear, \layoutstyle, \classification].
121866 2013-03-08 00:53:16 /0512/cond-mat.0512346 010000[\FRAME].
121867 2013-03-08 00:52:58 /0512/cond-mat.0512356 030000[\address, \name]; 1 missing file[annals.sty].
121868 2013-03-08 00:52:49 /0512/cond-mat.0512336 1530000[\kword, \abst, \inst].
121869 2013-03-08 00:52:23 /0512/cond-mat.0512332 1250000[\theappendix, \kword, \abst, \inst, \recdate].
121870 2013-03-08 00:51:41 /0512/cond-mat.0512304 180000[\email, \@affiliation, \etal]; 1 missing file[colordvi.sty].
121871 2013-03-08 00:51:38 /0512/cond-mat.0512305 070000[\nicefrac, \unit].
121872 2013-03-08 00:50:57 /0512/cond-mat.0512258 1610000[\hexagon].
121873 2013-03-08 00:50:26 /0512/cond-mat.0512275 730000[{keywords}, \IEEEpeerreviewmaketitle, \IEEEoverridecommandlockouts]; 1 missing file[IEEEtran.cls].
121874 2013-03-08 00:50:12 /0512/cond-mat.0512246 850000[\authorinfo, \skiplinehalf, \keywords]; 1 missing file[spie.cls].
121875 2013-03-08 00:49:46 /0512/cond-mat.0512190 35100000[\director, {dedication}, \makeapproval, \fstmember, \chairman, \thechapter, \@currentID, \outmember, \singlespacing, {acknowledgements}]; 1 missing file[usbthesis.cls].
121876 2013-03-08 00:49:38 /0512/cond-mat.0512174 4510000[\psfrag].
121877 2013-03-08 00:49:01 /0512/cond-mat.0512217 4310000[\newcounter].
121878 2013-03-08 00:48:50 /0512/cond-mat.0512212 5270000[{acknowledgments}, \ls, \affiliation, \ns, \pagerange, \volume, \pubyear]; 1 missing file[jfm.cls].
121879 2013-03-08 00:48:21 /0512/cond-mat.0512155 3740000[\thechapter, \@currentID]; 1 missing file[thesis.cls].
121880 2013-03-08 00:48:17 /0512/cond-mat.0512197 040000[\@affiliation].
121881 2013-03-08 00:48:04 /0512/cond-mat.0512186 710000[\ead].
121882 2013-03-08 00:47:35 /0512/cond-mat.0512192 110000[\theappendix].
121883 2013-03-08 00:47:31 /0512/cond-mat.0512194 160000[\refaddr, \pacs, \addresses, \addr, \keywords]; 1 missing file[cmp209.sty].
121884 2013-03-08 00:47:29 /0512/cond-mat.0512176 2820000[\@affiliation].
121885 2013-03-08 00:46:59 /0512/cond-mat.0512164 850000[\kword, \abst, \inst, \recdate, \citen].
121886 2013-03-08 00:46:37 /0512/cond-mat.0512159 7460000[\twoimages, \onefigure, Align, \email, {largetabular}, \@affiliation, \psfrag, \etal].
121887 2013-03-08 00:46:00 /0512/cond-mat.0512137 010000[\psfrag].
121888 2013-03-08 00:45:55 /0512/cond-mat.0512140 010000[\ack].
121889 2013-03-08 00:45:54 /0512/cond-mat.0512136 5140000[\citeauthoryear, \institute, \runningtitle, {opening}, \keywords, \newdisplay, \includegraphics, \theendnotes, \email, \firstpage, \runningauthor, \rotatebox, \acknowledgements]; 2 missing files[sprrefn.sty, nato.cls].
121890 2013-03-08 00:45:44 /0512/cond-mat.0512120 410000[\onlinecite].
121891 2013-03-08 00:45:35 /0512/cond-mat.0512119 220000[\toctitle]; 1 missing file[u.fontmap].
121892 2013-03-08 00:45:34 /0512/cond-mat.0512121 340000[\address, \runningheads, {Abstract}, {start}]; 1 missing file[qts-proc.cls].
121893 2013-03-08 00:44:27 /0512/cond-mat.0512098 2810000[\ead].
121894 2013-03-08 00:43:45 /0512/cond-mat.0512086 130000[{keywords}, \PARstart, \IEEEpeerreviewmaketitle]; 1 missing file[IEEEtran.cls].
121895 2013-03-08 00:42:48 /0512/cond-mat.0512081 310000[\psfrag].
121896 2013-03-08 00:42:11 /0512/cond-mat.0512070 730000[\pacs, \inst, \institute]; 1 missing file[epl_ARC.cls].
121897 2013-03-08 00:41:35 /0512/cond-mat.0512059 310000[\theappendix].
121898 2013-03-08 00:41:15 /0512/cond-mat.0512029 730000[\shortdownarrow, \psfrag, \shortuparrow].
121899 2013-03-08 00:40:52 /0512/cond-mat.0512028 010000[\psfrag].
121900 2013-03-08 00:40:40 /0512/cond-mat.0512011 3410000[\psfrag].
121901 2013-03-08 00:40:26 /0512/cond-mat.0512015 030000[\extrasenglish, \dateenglish, \captionsenglish].
121902 2013-03-08 00:40:09 /0512/cond-mat.0512018 010000[\theappendix].
121903 2013-03-08 00:39:57 /0512/cond-mat.0512005 810000[\utilde].
121904 2013-03-08 00:39:08 /0512/cond-mat.0512012 110000[\listfiles].
121905 2013-03-08 00:38:53 /0512/astro-ph.0512654 790000[\headertitle, {acknowledge}, \mainauthor, \summary, \affiliation, \psfig]; 1 missing file[nature-ejb.sty].
121906 2013-03-08 00:38:50 /0512/astro-ph.0512656 050000[{theacknowledgments}, \layoutstyle, \tablehead, \classification]; 1 missing file[{aipcheck}].
121907 2013-03-08 00:38:45 /0512/cond-mat.0512001 030000[\@affiliation].
121908 2013-03-08 00:38:02 /0512/astro-ph.0512646 190000[\inst, \mailto, \institute, \offprints, \keywords, \email, \volnopage, \titlerunning, \authorrunning]; 1 missing file[cjaa.cls].
121909 2013-03-08 00:38:00 /0512/astro-ph.0512649 030000[{theacknowledgments}, \layoutstyle, \classification].
121910 2013-03-08 00:37:55 /0512/astro-ph.0512639 120000[\affil, \keywords]; 1 missing file[esapub2005.cls].
121911 2013-03-08 00:37:48 /0512/astro-ph.0512635 130000[\affil, \acknowledgements]; 1 missing file[asp2004.sty].
121912 2013-03-08 00:37:43 /0512/astro-ph.0512638 120000[\affil, \keywords]; 1 missing file[esapub2005.cls].
121913 2013-03-08 00:37:42 /0512/astro-ph.0512637 020000[\affil]; 1 missing file[asp2004.sty].
121914 2013-03-08 00:37:31 /0512/astro-ph.0512640 1250000[\affil, {keywords}, \articletitle, \kluwerbib, \upperandlowercase, \email, {chapthebibliography}].
121915 2013-03-08 00:37:28 /0512/astro-ph.0512621 3150000[\affil, \apj, \citep, \apjl, \ga, \plotfiddle, \aap, \nat, \la, \citealt, \mnras, \prd, \arcsec, \citet]; 1 missing file[asp2004.sty].
121916 2013-03-08 00:37:17 /0512/astro-ph.0512624 140000[\affil, \psfig, \keywords]; 2 missing files[XrU2005.cls, {psfig.sty}].
121917 2013-03-08 00:36:57 /0512/astro-ph.0512619 0430000[\theappendix].
121918 2013-03-08 00:36:26 /0512/astro-ph.0512609 73120000[\inst, \mailto, \institute, \offprints, \ga, \la, \keywords, \sun, \email, \volnopage, \titlerunning, \authorrunning]; 1 missing file[cjaa.cls].
121919 2013-03-08 00:36:06 /0512/astro-ph.0512604 120000[\presenter, \newauthor]; 1 missing file[icrc29.cls].
121920 2013-03-08 00:36:03 /0512/astro-ph.0512608 1130000[\inst, \correspondence, \institute].
121921 2013-03-08 00:35:54 /0512/astro-ph.0512610 4100000[{acknowledgments}, \editors, \affiliation, \keywords, \volume, \firstsection, \pagerange, \jname, \pubyear, \etal]; 1 missing file[iaus.cls].
121922 2013-03-08 00:35:01 /0512/astro-ph.0512567 1430000[\cyri, \cyrgup]; 1 missing file[T2Aenc.def].
121923 2013-03-08 00:34:46 /0512/astro-ph.0512558 3170000[\affil, \apj, \citep, \aap, \nat, \Accepted, \email, \araa, \KeyWords, \draft, \aj, \Received, \mnras, \FigureFile, \physrep, \citet, \SetRunningHead]; 1 missing file[pasj00.cls].
121924 2013-03-08 00:34:22 /0512/astro-ph.0512542 010000[\al@[].
121925 2013-03-08 00:34:20 /0512/astro-ph.0512564 110000[\presenter]; 1 missing file[icrc29.cls].
121926 2013-03-08 00:34:12 /0512/astro-ph.0512554 520000[\setkeys]; 1 missing file[hypcap.sty].
121927 2013-03-08 00:33:57 /0512/astro-ph.0512556 080000[\affil, \mnras, \apj, \pasp, \tableline, \acknowledgements, \keywords]; 1 missing file[asp2004.sty].
121928 2013-03-08 00:33:39 /0512/astro-ph.0512529 430000[\psfrag].
121929 2013-03-08 00:33:16 /0512/astro-ph.0512534 1230000[\theappendix, {sidewaystable*}]; 1 missing file[colordvi.sty].
121930 2013-03-08 00:32:44 /0512/astro-ph.0512536 2210000[\issuenumber, \pacs, \addressiv, \authori, \addressvi, \authoriii, \addressi, \headtitle, \refnum, \addressv, \lastevenhead, \authorvi, \addressiii, \unit, \headauthor, \authorii, \keywords, \authoriv, \daterec, \authorv, \addressii].
121931 2013-03-08 00:32:42 /0512/astro-ph.0512520 1220000[\arcmin, \apj, \citep, \pasj, \aap, \Accepted, \email, \arcdeg, \arcsec, \fs, \KeyWords, \aj, \Published, \altaffilmark, \Received, \mnras, \apjs, \FigureFile, \altaffiltext, \citet, \farcs, \SetRunningHead]; 1 missing file[pasj00.cls].
121932 2013-03-08 00:32:41 /0512/astro-ph.0512519 470000[\email, \titlerunning, \volnopage, \institute, \offprints, \authorrunning, \keywords]; 1 missing file[cjaa.cls].
121933 2013-03-08 00:32:30 /0512/astro-ph.0512521 4150000[\affil, \draft, \endhead, \endfirsthead, {longtable}, \endfoot, \Received, Align, \Accepted, \email, \FigureFile, \endlastfoot, \SetRunningHead, \KeyWords]; 1 missing file[pasj00.cls].
121934 2013-03-08 00:32:17 /0512/astro-ph.0512523 010000[\ead].
121935 2013-03-08 00:32:05 /0512/astro-ph.0512513 110000[\theappendix].
121936 2013-03-08 00:31:43 /0512/astro-ph.0512512 250000[\ShortTitle, \email, \FullConference, \acknowledgments, \speaker]; 1 missing file[PoS.cls].
121937 2013-03-08 00:31:25 /0512/astro-ph.0512496 010000[\cjaa].
121938 2013-03-08 00:31:19 /0512/astro-ph.0512515 060000[\headertitle, \mainauthor, \summary, \affiliationmark, \affiliation]; 1 missing file[nature-ejb.sty].
121939 2013-03-08 00:31:16 /0512/astro-ph.0512480 4120000[\theappendix].
121940 2013-03-08 00:31:14 /0512/astro-ph.0512497 8110000[\editors, \affiliation, \acknowledgments, \keywords, \volume, \firstsection, \pagerange, \jname, \pubyear]; 1 missing file[iaus.cls].
121941 2013-03-08 00:31:12 /0512/astro-ph.0512500 190000[{acknowledgments}, \firstsection, \editors, \affiliation, \jname, \pagerange, \keywords, \volume, \pubyear]; 1 missing file[iaus.cls].
121942 2013-03-08 00:31:04 /0512/astro-ph.0512504 2060000[\affil, \reference, {references}, \acknowledgments, \keywords]; 1 missing file[fewbody2005.sty].
121943 2013-03-08 00:31:01 /0512/astro-ph.0512501 030000[\correspondence, \arcsec, \institute].
121944 2013-03-08 00:30:47 /0512/astro-ph.0512492 520000[{sidewaystable}].
121945 2013-03-08 00:30:40 /0512/astro-ph.0512485 2380000[{acknowledgments}, \affil, {keywords}, \articletitle, \kluwerbib, \upperandlowercase, \email, {chapthebibliography}].
121946 2013-03-08 00:30:20 /0512/astro-ph.0512488 0180000[\affil, \citep, \ga, \plotfiddle, \keywords, \sun, \pasp, \plotone, \citet, \acknowledgements]; 1 missing file[asp2004.sty].
121947 2013-03-08 00:29:37 /0512/astro-ph.0512470 1430000[{sidewaystable*}]; 1 missing file[aalongtable.sty].
121948 2013-03-08 00:29:35 /0512/astro-ph.0512484 1210000[\theappendix].
121949 2013-03-08 00:29:12 /0512/astro-ph.0512468 030000[\theappendix].
121950 2013-03-08 00:28:59 /0512/astro-ph.0512471 290000[\theappendix, \endfoot, Align, \endhead, \endfirsthead, {longtable}]; 1 missing file[aalongtable.sty].
121951 2013-03-08 00:28:45 /0512/astro-ph.0512455 020000[\journalinfo]; 1 missing file[apjfonts.sty].
121952 2013-03-08 00:28:34 /0512/astro-ph.0512457 190000[{acknowledgments}, \firstsection, \editors, \affiliation, \jname, \pagerange, \keywords, \volume, \pubyear]; 1 missing file[iauc.cls].
121953 2013-03-08 00:27:37 /0512/astro-ph.0512440 510000[\FloatBarrier].
121954 2013-03-08 00:27:35 /0512/astro-ph.0512381 8720000[\rrbracket, \llbracket].
121955 2013-03-08 00:27:18 /0512/astro-ph.0512434 2560000[\issuenumber, \pacs, \bc, \authori, \ec, \addressi, \headtitle, \refnum, \bbib, \lastevenhead, \efg, \headauthor, \ebib, \authorii, \keywords, \daterec, \bfg, \addressii].
121956 2013-03-08 00:27:12 /0512/astro-ph.0512436 030000[\inst, \correspondence, \institute].
121957 2013-03-08 00:27:02 /0512/astro-ph.0512438 020000[\nonum, \ead].
121958 2013-03-08 00:26:58 /0512/astro-ph.0512442 060000[\subtitle, \psfig, \institute, \runningtitle, {opening}]; 1 missing file[crck.sty].
121959 2013-03-08 00:26:42 /0512/astro-ph.0512426 120000[\epsffile, \epsfxsize].
121960 2013-03-08 00:25:39 /0512/astro-ph.0512405 1510000[\theappendix].
121961 2013-03-08 00:25:22 /0512/astro-ph.0512394 610000[\theappendix].
121962 2013-03-08 00:24:22 /0512/astro-ph.0512400 140000[\affil, \tightenlines, \affilmark]; 1 missing file[pazh.sty].
121963 2013-03-08 00:24:15 /0512/astro-ph.0512384 2210000[\affil, \citeyear, \apj, \citep, \apjl, \nat, \aap, \pasp, \prd, \citeauthor, \araa, \aj, \citealp, \tableline, \keywords, \la, \mnras, \apjs, \citet, \acknowledgements]; 1 missing file[asp2004.sty].
121964 2013-03-08 00:24:14 /0512/astro-ph.0512387 030000[{sidewaystable}]; 1 missing file[afterpage.sty].
121965 2013-03-08 00:23:57 /0512/astro-ph.0512388 1150000[\refb, {keywords}, \submitb, \ts, \titlehead, \References, \resthead, {authorl}, \titleb, \tablerule, \authorb, \addressb, {addressl}, \sectionb]; 1 missing file[baltlat5.sty].
121966 2013-03-08 00:23:34 /0512/astro-ph.0512364 350000[\theappendix, \pcite, \ncite, \scite]; 1 missing file[mnras_cite.sty].
121967 2013-03-08 00:23:25 /0512/astro-ph.0512378 510000[\psfigurepath].
121968 2013-03-08 00:23:15 /0512/astro-ph.0512362 880000[\endfoot, Align, \endhead, \endfirsthead, {longtable}]; 1 missing file[aalongtable.sty].
121969 2013-03-08 00:23:00 /0512/astro-ph.0512361 260000[\sun, \inst, \institute, \ga, {acknowledgements}, \la].
121970 2013-03-08 00:21:48 /0512/astro-ph.0512351 910000[\rmxaa].
121971 2013-03-08 00:21:23 /0512/astro-ph.0512353 4110000[\editors, \affiliation, \discuss, \keywords, \volume, \firstsection, {discussion}, \pagerange, \jname, \pubyear, \etal]; 1 missing file[iaus.cls].
121972 2013-03-08 00:21:19 /0512/astro-ph.0512354 870000[\editors, \affiliation, \jname, \pagerange, \etal, \volume, \pubyear]; 1 missing file[iaus.cls].
121973 2013-03-08 00:21:05 /0512/astro-ph.0512342 7830000[\theappendix].
121974 2013-03-08 00:18:57 /0512/astro-ph.0512325 1020000[\theappendix, \citeauthoryear].
121975 2013-03-08 00:18:45 /0512/astro-ph.0512313 210000[\tableheadfrac].
121976 2013-03-08 00:18:31 /0512/astro-ph.0512326 060000[\affil, \acknowledgements, \plotfiddle]; 1 missing file[asp2004.sty].
121977 2013-03-08 00:18:17 /0512/astro-ph.0512308 1250000[\apj, \timeform, \citep, \lesssim, \apjl, \Accepted, \email, \arcdeg, \arcsec, \KeyWords, \draft, \aj, \altaffilmark, \Received, \apjs, \mnras, \gtrsim, \yearcite, \FigureFile, \farcm, \altaffiltext, \authorcite, \citet, \farcs, \SetRunningHead]; 1 missi
121978 2013-03-08 00:18:08 /0512/astro-ph.0512307 4180000[\affil, \apj, \aj, \citep, \aap, \sun, \apjs, \citet, \araa, \acknowledgements, \plottwo]; 1 missing file[asp2004.sty].
121979 2013-03-08 00:17:22 /0512/astro-ph.0512316 450000[\ShortTitle, \email, \FullConference, \psfrag, \speaker]; 1 missing file[PoS.cls].
121980 2013-03-08 00:17:18 /0512/astro-ph.0512299 5070000[Align, {longtable}]; 2 missing files[chemarr.sty, aalongtable.sty].
121981 2013-03-08 00:16:15 /0512/astro-ph.0512289 010000[\theappendix].
121982 2013-03-08 00:16:11 /0512/astro-ph.0512287 680000[\firstsection, \editors, \affiliation, \jname, \pagerange, \keywords, \volume, \pubyear]; 1 missing file[iaus.cls].
121983 2013-03-08 00:15:53 /0512/astro-ph.0512292 6230000[\affil, \apj, \citep, \accepted, \slugcomment, \apjl, \aap, \shortauthors, \ccc, \email, \shorttitle, \pasp, \cpright, \araa, \received, \aj, \resizebox, \keywords, \la, \includegraphics, \mnras, \revised, \citet]; 1 missing file[myaastex.cls].
121984 2013-03-08 00:14:32 /0512/astro-ph.0512272 120000[\varSigma, \varOmega].
121985 2013-03-08 00:13:57 /0512/astro-ph.0512255 120000[\citep]; 1 missing file[natbib2.sty].
121986 2013-03-08 00:13:47 /0512/astro-ph.0512258 0130000[\colhead, \tablehead, \tablewidth, \tabletypesize, {deluxetable}, \tablecomments, Align, \startdata, \tablecaption, \enddata]; 1 missing file[deluxetable.sty].
121987 2013-03-08 00:13:29 /0512/astro-ph.0512264 0160000[\indexauthor, \shortauthor, \acknowledgments, \dateenglish, \altaffilmark, \extrasenglish, \listofauthors, \SetYear, \shorttitle, \email, \SetConfTitle, \addkeyword, \altaffiltext, \fulladdresses, \captionsenglish].
121988 2013-03-08 00:13:24 /0512/astro-ph.0512245 490000[{acknowledgments}, \firstsection, \editors, \affiliation, \jname, \pagerange, \keywords, \volume, \pubyear]; 1 missing file[iauc.cls].
121989 2013-03-08 00:13:18 /0512/astro-ph.0512250 1530000[\pcite, \scite]; 1 missing file[mncite.sty].
121990 2013-03-08 00:13:09 /0512/astro-ph.0512249 170000[\arcmin, \affil, \grl, \citep, \citet, \jgr, \keywords]; 1 missing file[XrU2005.cls].
121991 2013-03-08 00:12:05 /0512/astro-ph.0512244 010000[\sq].
121992 2013-03-08 00:11:53 /0512/astro-ph.0512228 13140000[\endfoot, Align, \endhead, \endfirsthead, {longtable}]; 1 missing file[aalongtable.sty].
121993 2013-03-08 00:11:24 /0512/astro-ph.0512215 010000[{comment}].
121994 2013-03-08 00:11:05 /0512/astro-ph.0512206 420000[\theappendix]; 1 missing file[apjfonts.sty].
121995 2013-03-08 00:10:54 /0512/astro-ph.0512220 110000[\ead].
121996 2013-03-08 00:10:19 /0512/astro-ph.0512201 31120000[\colhead, \tablehead, \tablecolumns, \rotate, \tablewidth, \tabletypesize, {deluxetable}, \startdata, Align, \tablecaption, \enddata]; 1 missing file[deluxetable.sty].
121997 2013-03-08 00:10:10 /0512/astro-ph.0512200 310000[\theappendix].
121998 2013-03-08 00:09:27 /0512/astro-ph.0512184 390000[\includegraphics, \ShortTitle, \email, \FullConference, \speaker]; 1 missing file[PoS.cls].
121999 2013-03-08 00:09:26 /0512/astro-ph.0512174 810000[\affiliation].
122000 2013-03-08 00:09:05 /0512/astro-ph.0512191 040000[\inst, \correspondence, \institute, \acknowledgements].
<<< >>>

[0] [200] [400] [600] [800] [1000] [1200] [1400] [1600] [1800] [2000] [2200] [2400] [2600] [2800] [3000] [3200] [3400] [3600] [3800] [4000] [4200] [4400] [4600] [4800] [5000] [5200] [5400] [5600] [5800] [6000] [6200] [6400] [6600] [6800] [7000] [7200] [7400] [7600] [7800] [8000] [8200] [8400] [8600] [8800] [9000] [9200] [9400] [9600] [9800] [10000] [10200] [10400] [10600] [10800] [11000] [11200] [11400] [11600] [11800] [12000] [12200] [12400] [12600] [12800] [13000] [13200] [13400] [13600] [13800] [14000] [14200] [14400] [14600] [14800] [15000] [15200] [15400] [15600] [15800] [16000] [16200] [16400] [16600] [16800] [17000] [17200] [17400] [17600] [17800] [18000] [18200] [18400] [18600] [18800] [19000] [19200] [19400] [19600] [19800] [20000] [20200] [20400] [20600] [20800] [21000] [21200] [21400] [21600] [21800] [22000] [22200] [22400] [22600] [22800] [23000] [23200] [23400] [23600] [23800] [24000] [24200] [24400] [24600] [24800] [25000] [25200] [25400] [25600] [25800] [26000] [26200] [26400] [26600] [26800] [27000] [27200] [27400] [27600] [27800] [28000] [28200] [28400] [28600] [28800] [29000] [29200] [29400] [29600] [29800] [30000] [30200] [30400] [30600] [30800] [31000] [31200] [31400] [31600] [31800] [32000] [32200] [32400] [32600] [32800] [33000] [33200] [33400] [33600] [33800] [34000] [34200] [34400] [34600] [34800] [35000] [35200] [35400] [35600] [35800] [36000] [36200] [36400] [36600] [36800] [37000] [37200] [37400] [37600] [37800] [38000] [38200] [38400] [38600] [38800] [39000] [39200] [39400] [39600] [39800] [40000] [40200] [40400] [40600] [40800] [41000] [41200] [41400] [41600] [41800] [42000] [42200] [42400] [42600] [42800] [43000] [43200] [43400] [43600] [43800] [44000] [44200] [44400] [44600] [44800] [45000] [45200] [45400] [45600] [45800] [46000] [46200] [46400] [46600] [46800] [47000] [47200] [47400] [47600] [47800] [48000] [48200] [48400] [48600] [48800] [49000] [49200] [49400] [49600] [49800] [50000] [50200] [50400] [50600] [50800] [51000] [51200] [51400] [51600] [51800] [52000] [52200] [52400] [52600] [52800] [53000] [53200] [53400] [53600] [53800] [54000] [54200] [54400] [54600] [54800] [55000] [55200] [55400] [55600] [55800] [56000] [56200] [56400] [56600] [56800] [57000] [57200] [57400] [57600] [57800] [58000] [58200] [58400] [58600] [58800] [59000] [59200] [59400] [59600] [59800] [60000] [60200] [60400] [60600] [60800] [61000] [61200] [61400] [61600] [61800] [62000] [62200] [62400] [62600] [62800] [63000] [63200] [63400] [63600] [63800] [64000] [64200] [64400] [64600] [64800] [65000] [65200] [65400] [65600] [65800] [66000] [66200] [66400] [66600] [66800] [67000] [67200] [67400] [67600] [67800] [68000] [68200] [68400] [68600] [68800] [69000] [69200] [69400] [69600] [69800] [70000] [70200] [70400] [70600] [70800] [71000] [71200] [71400] [71600] [71800] [72000] [72200] [72400] [72600] [72800] [73000] [73200] [73400] [73600] [73800] [74000] [74200] [74400] [74600] [74800] [75000] [75200] [75400] [75600] [75800] [76000] [76200] [76400] [76600] [76800] [77000] [77200] [77400] [77600] [77800] [78000] [78200] [78400] [78600] [78800] [79000] [79200] [79400] [79600] [79800] [80000] [80200] [80400] [80600] [80800] [81000] [81200] [81400] [81600] [81800] [82000] [82200] [82400] [82600] [82800] [83000] [83200] [83400] [83600] [83800] [84000] [84200] [84400] [84600] [84800] [85000] [85200] [85400] [85600] [85800] [86000] [86200] [86400] [86600] [86800] [87000] [87200] [87400] [87600] [87800] [88000] [88200] [88400] [88600] [88800] [89000] [89200] [89400] [89600] [89800] [90000] [90200] [90400] [90600] [90800] [91000] [91200] [91400] [91600] [91800] [92000] [92200] [92400] [92600] [92800] [93000] [93200] [93400] [93600] [93800] [94000] [94200] [94400] [94600] [94800] [95000] [95200] [95400] [95600] [95800] [96000] [96200] [96400] [96600] [96800] [97000] [97200] [97400] [97600] [97800] [98000] [98200] [98400] [98600] [98800] [99000] [99200] [99400] [99600] [99800] [100000] [100200] [100400] [100600] [100800] [101000] [101200] [101400] [101600] [101800] [102000] [102200] [102400] [102600] [102800] [103000] [103200] [103400] [103600] [103800] [104000] [104200] [104400] [104600] [104800] [105000] [105200] [105400] [105600] [105800] [106000] [106200] [106400] [106600] [106800] [107000] [107200] [107400] [107600] [107800] [108000] [108200] [108400] [108600] [108800] [109000] [109200] [109400] [109600] [109800] [110000] [110200] [110400] [110600] [110800] [111000] [111200] [111400] [111600] [111800] [112000] [112200] [112400] [112600] [112800] [113000] [113200] [113400] [113600] [113800] [114000] [114200] [114400] [114600] [114800] [115000] [115200] [115400] [115600] [115800] [116000] [116200] [116400] [116600] [116800] [117000] [117200] [117400] [117600] [117800] [118000] [118200] [118400] [118600] [118800] [119000] [119200] [119400] [119600] [119800] [120000] [120200] [120400] [120600] [120800] [121000] [121200] [121400] [121600] [121800] [122000] [122200] [122400] [122600] [122800] [123000] [123200] [123400] [123600] [123800] [124000] [124200] [124400] [124600] [124800] [125000] [125200] [125400] [125600] [125800] [126000] [126200] [126400] [126600] [126800] [127000] [127200] [127400] [127600] [127800] [128000] [128200] [128400] [128600] [128800] [129000] [129200] [129400] [129600] [129800] [130000] [130200] [130400] [130600] [130800] [131000] [131200] [131400] [131600] [131800] [132000] [132200] [132400] [132600] [132800] [133000] [133200] [133400] [133600] [133800] [134000] [134200] [134400] [134600] [134800] [135000] [135200] [135400] [135600] [135800] [136000] [136200] [136400] [136600] [136800] [137000] [137200] [137400] [137600] [137800] [138000] [138200] [138400] [138600] [138800] [139000] [139200] [139400] [139600] [139800] [140000] [140200] [140400] [140600] [140800] [141000] [141200] [141400] [141600] [141800] [142000] [142200] [142400] [142600] [142800] [143000] [143200] [143400] [143600] [143800] [144000] [144200] [144400] [144600] [144800] [145000] [145200] [145400] [145600] [145800] [146000] [146200] [146400] [146600] [146800] [147000] [147200] [147400] [147600] [147800] [148000] [148200] [148400] [148600] [148800] [149000] [149200] [149400] [149600] [149800] [150000] [150200] [150400] [150600] [150800] [151000] [151200] [151400] [151600] [151800] [152000] [152200] [152400] [152600] [152800] [153000] [153200] [153400] [153600] [153800] [154000] [154200] [154400] [154600] [154800] [155000] [155200] [155400] [155600] [155800] [156000] [156200] [156400] [156600] [156800] [157000] [157200] [157400] [157600] [157800] [158000] [158200] [158400] [158600] [158800] [159000] [159200] [159400] [159600] [159800] [160000] [160200] [160400] [160600] [160800] [161000] [161200] [161400] [161600] [161800] [162000] [162200] [162400] [162600] [162800] [163000] [163200] [163400] [163600] [163800] [164000] [164200] [164400] [164600]
 
  The service has been written by
Heinrich Stamerjohanns